Terminal Aerodrome Forecast
Issued by NWS Charleston, WV

Current Version | Previous Version | Graphics & Text | Print | Product List | Glossary On
Versions: 1 2 3 4 5 6 7 8 9 10 11 12 13 14 15 16 17 18 19 20 21 22 23 24
000
FTUS41 KRLX 181120
TAFHTS
TAF
KHTS 181120Z 1812/1912 00000KT 4SM BR FEW001
     FM181230 20002KT P6SM FEW250
     FM181800 27003KT P6SM SCT060
     FM190000 00000KT P6SM FEW250
     FM191000 00000KT 3SM BR SCT001=

USA.gov is the U.S. government's official web portal to all federal, state and local government web resources and services.